Time;durP1;ratioP1;P1;durP2;ratioP2;P2;SDS_P1;SDS_P2;PMS_P1;PMS_P2;Temp;Humidity;BMP_temperature;BMP_pressure;BME280_temperature;BME280_humidity;BME280_pressure;Samples;Min_cycle;Max_cycle;Signal;HPM_P1;HPM_P2
2022/12/02 00:00:23;;;;;;;17.90;12.80;;;3.90;96.40;;;;;;5024489;28;20476;-64
2022/12/02 00:02:49;;;;;;;14.33;10.43;;;3.90;96.40;;;;;;5018667;28;20417;-64
2022/12/02 00:05:15;;;;;;;15.23;11.60;;;3.90;96.40;;;;;;5012528;28;20440;-64
2022/12/02 00:07:50;;;;;;;18.07;12.23;;;3.90;96.40;;;;;;5041633;28;20510;-64
2022/12/02 00:10:30;;;;;;;17.50;11.93;;;3.90;96.40;;;;;;5021809;28;20293;-64
2022/12/02 00:13:10;;;;;;;16.13;9.40;;;3.90;96.40;;;;;;5033567;28;20443;-64
2022/12/02 00:15:41;;;;;;;13.43;10.13;;;3.90;96.40;;;;;;5046027;28;20473;-64
2022/12/02 00:18:09;;;;;;;13.73;10.93;;;3.90;96.40;;;;;;5034634;28;20417;-64
2022/12/02 00:20:37;;;;;;;15.37;11.00;;;3.90;96.40;;;;;;5026341;28;20548;-64
2022/12/02 00:23:03;;;;;;;14.57;10.87;;;3.90;96.40;;;;;;5020290;28;20432;-64
2022/12/02 00:25:29;;;;;;;16.60;10.23;;;3.90;96.40;;;;;;4990673;28;20463;-64
2022/12/02 00:27:55;;;;;;;15.33;10.10;;;3.90;96.40;;;;;;5038961;28;20465;-64
2022/12/02 00:30:21;;;;;;;18.23;13.10;;;3.90;96.40;;;;;;5000142;28;20484;-64
2022/12/02 00:32:47;;;;;;;19.60;12.57;;;3.90;96.40;;;;;;4996660;28;20194;-64
2022/12/02 00:35:14;;;;;;;17.97;12.87;;;3.90;96.40;;;;;;4997295;28;20194;-64
2022/12/02 00:37:39;;;;;;;15.63;11.53;;;3.90;96.40;;;;;;5016457;28;20198;-64
2022/12/02 00:40:05;;;;;;;16.73;12.27;;;3.90;96.40;;;;;;4996017;28;20467;-64
2022/12/02 00:42:31;;;;;;;19.47;11.97;;;3.90;96.50;;;;;;5015924;28;20187;-64
2022/12/02 00:47:41;;;;;;;16.10;10.50;;;3.90;96.40;;;;;;5036702;28;20262;-64
2022/12/02 00:50:07;;;;;;;15.23;10.03;;;3.90;96.50;;;;;;5014680;28;20445;-64
2022/12/02 00:52:33;;;;;;;10.63;8.63;;;3.90;96.50;;;;;;5044972;28;20205;-64
2022/12/02 00:54:58;;;;;;;13.10;10.43;;;3.90;96.40;;;;;;5020010;28;20433;-64
2022/12/02 00:57:24;;;;;;;10.97;8.60;;;4.00;96.40;;;;;;5018885;28;20216;-64
2022/12/02 00:59:50;;;;;;;14.63;11.70;;;4.00;96.50;;;;;;5030245;28;20217;-64
2022/12/02 01:02:15;;;;;;;15.60;10.70;;;4.00;96.50;;;;;;5028585;28;20194;-64
2022/12/02 01:04:41;;;;;;;14.50;10.40;;;4.00;96.40;;;;;;5022937;28;20194;-64
2022/12/02 01:07:07;;;;;;;14.50;10.60;;;4.00;96.40;;;;;;5032445;28;20272;-64
2022/12/02 01:09:32;;;;;;;14.90;10.63;;;4.00;96.40;;;;;;5013875;28;20240;-64
2022/12/02 01:11:58;;;;;;;15.80;11.20;;;4.00;96.40;;;;;;5026452;28;20217;-64
2022/12/02 01:14:24;;;;;;;16.97;12.60;;;4.00;96.40;;;;;;5036964;28;20185;-64
2022/12/02 01:16:49;;;;;;;11.67;9.40;;;4.00;96.40;;;;;;5040658;28;20190;-64
2022/12/02 01:19:15;;;;;;;14.37;10.50;;;4.00;96.50;;;;;;5032516;28;20209;-64
2022/12/02 01:21:41;;;;;;;12.17;9.97;;;4.00;96.50;;;;;;5016034;28;20198;-64
2022/12/02 01:24:06;;;;;;;15.27;11.33;;;4.00;96.40;;;;;;5027239;28;20198;-64
2022/12/02 01:26:32;;;;;;;14.20;10.47;;;4.00;96.50;;;;;;5011861;28;20183;-64
2022/12/02 01:28:58;;;;;;;16.07;12.07;;;4.00;96.50;;;;;;5020557;28;20277;-64
2022/12/02 01:31:23;;;;;;;16.70;11.33;;;4.00;96.50;;;;;;5035298;28;20218;-64
2022/12/02 01:33:49;;;;;;;14.10;9.50;;;4.00;96.50;;;;;;5005977;28;20645;-64
2022/12/02 01:36:15;;;;;;;13.97;9.70;;;4.00;96.50;;;;;;5012911;28;20213;-64
2022/12/02 01:38:40;;;;;;;17.13;11.00;;;4.00;96.50;;;;;;5026780;28;20189;-64
2022/12/02 01:41:07;;;;;;;16.77;11.50;;;4.00;96.50;;;;;;5037923;28;20209;-64
2022/12/02 01:43:33;;;;;;;17.97;11.07;;;4.00;96.50;;;;;;5053212;28;20185;-64
2022/12/02 01:45:59;;;;;;;14.17;10.30;;;4.00;96.40;;;;;;5031314;28;20855;-64
2022/12/02 01:48:25;;;;;;;19.20;12.20;;;4.00;96.40;;;;;;5022345;28;20475;-64
2022/12/02 01:50:50;;;;;;;15.33;11.03;;;4.00;96.40;;;;;;5044944;28;20191;-64
2022/12/02 01:53:16;;;;;;;13.77;11.17;;;4.00;96.50;;;;;;5020553;28;20191;-64
2022/12/02 01:55:42;;;;;;;19.10;13.53;;;4.00;96.40;;;;;;5034566;28;20202;-64
2022/12/02 01:58:11;;;;;;;15.70;11.03;;;4.00;96.40;;;;;;5022636;28;20554;-64
2022/12/02 02:00:36;;;;;;;12.93;9.83;;;3.90;96.40;;;;;;5038468;28;20291;-64
2022/12/02 02:03:02;;;;;;;15.43;10.80;;;4.00;96.40;;;;;;5035811;28;20522;-64
2022/12/02 02:05:30;;;;;;;19.57;13.87;;;3.90;96.40;;;;;;5038698;28;20196;-64
2022/12/02 02:08:01;;;;;;;16.70;11.50;;;4.00;96.40;;;;;;5036656;28;20194;-64
2022/12/02 02:10:27;;;;;;;18.57;13.00;;;3.90;96.40;;;;;;5049819;28;20435;-64
2022/12/02 02:12:53;;;;;;;16.80;11.27;;;3.90;96.50;;;;;;5040574;28;20473;-64
2022/12/02 02:15:20;;;;;;;16.03;10.97;;;3.90;96.50;;;;;;5032372;28;20478;-64
2022/12/02 02:17:46;;;;;;;16.10;11.07;;;3.90;96.40;;;;;;5025254;28;20194;-65
2022/12/02 02:20:20;;;;;;;16.87;12.00;;;4.00;96.50;;;;;;5036218;28;20492;-64
2022/12/02 02:23:07;;;;;;;15.97;11.80;;;3.90;96.50;;;;;;5047292;28;20409;-64
2022/12/02 02:25:38;;;;;;;14.70;10.10;;;3.90;96.50;;;;;;5060593;28;20418;-64
2022/12/02 02:28:05;;;;;;;14.77;10.67;;;3.90;96.50;;;;;;5044217;28;20804;-64
2022/12/02 02:30:32;;;;;;;16.63;11.50;;;3.90;96.50;;;;;;5030000;28;20437;-64
2022/12/02 02:33:01;;;;;;;12.33;9.27;;;4.00;96.50;;;;;;5039319;28;20959;-65
2022/12/02 02:35:27;;;;;;;16.17;11.93;;;4.00;96.50;;;;;;5035403;28;20444;-65
2022/12/02 02:37:54;;;;;;;16.67;11.03;;;4.00;96.50;;;;;;5040640;28;20430;-64
2022/12/02 02:40:23;;;;;;;13.83;11.40;;;3.90;96.50;;;;;;5032496;28;20210;-64
2022/12/02 02:42:56;;;;;;;16.33;11.97;;;4.00;96.50;;;;;;5032842;28;20478;-64
2022/12/02 02:45:25;;;;;;;15.50;11.53;;;4.00;96.50;;;;;;5038609;28;20422;-64
2022/12/02 02:47:53;;;;;;;15.20;11.47;;;4.00;96.50;;;;;;5047141;28;20558;-64
2022/12/02 02:50:19;;;;;;;15.67;12.43;;;4.00;96.50;;;;;;5025388;28;20434;-64
2022/12/02 02:52:45;;;;;;;15.40;11.43;;;4.00;96.50;;;;;;4986991;28;20425;-64
2022/12/02 02:55:18;;;;;;;18.80;12.87;;;3.90;96.50;;;;;;5018013;28;20429;-64
2022/12/02 02:57:43;;;;;;;14.40;11.17;;;3.90;96.50;;;;;;5023316;28;20515;-64
2022/12/02 03:00:10;;;;;;;13.77;10.87;;;4.00;96.50;;;;;;5002657;28;20472;-64
2022/12/02 03:02:36;;;;;;;16.37;12.50;;;4.00;96.50;;;;;;5018930;28;20189;-64
2022/12/02 03:05:03;;;;;;;17.27;12.97;;;4.00;96.50;;;;;;5020983;28;20444;-64
2022/12/02 03:07:29;;;;;;;20.83;15.40;;;4.00;96.50;;;;;;5017504;28;20430;-64
2022/12/02 03:09:55;;;;;;;19.90;13.83;;;4.00;96.50;;;;;;5016522;28;20448;-64
2022/12/02 03:12:21;;;;;;;22.47;13.93;;;4.00;96.50;;;;;;5032215;28;20338;-64
2022/12/02 03:14:47;;;;;;;21.17;13.67;;;4.00;96.50;;;;;;5018772;28;20195;-64
2022/12/02 03:17:13;;;;;;;17.50;12.67;;;4.00;96.40;;;;;;5013671;28;20448;-64
2022/12/02 03:19:40;;;;;;;17.57;11.97;;;3.90;96.40;;;;;;5020503;28;20436;-64
2022/12/02 03:22:06;;;;;;;21.50;13.00;;;3.90;96.40;;;;;;5018406;28;20601;-64
2022/12/02 03:24:32;;;;;;;17.67;12.63;;;3.90;96.40;;;;;;5014512;28;20514;-64
2022/12/02 03:26:59;;;;;;;20.90;13.90;;;3.90;96.40;;;;;;5034821;28;20433;-64
2022/12/02 03:29:26;;;;;;;17.93;12.53;;;3.90;96.50;;;;;;5027213;28;20431;-64
2022/12/02 03:31:52;;;;;;;16.83;12.07;;;3.90;96.50;;;;;;4992660;28;20983;-64
2022/12/02 03:34:17;;;;;;;16.50;11.77;;;4.00;96.50;;;;;;4993596;28;20461;-64
2022/12/02 03:36:43;;;;;;;22.00;14.67;;;4.00;96.50;;;;;;5037309;28;20190;-64
2022/12/02 03:39:09;;;;;;;18.47;13.17;;;4.00;96.50;;;;;;5037322;28;20186;-64
2022/12/02 03:41:36;;;;;;;26.33;17.07;;;4.00;96.50;;;;;;4995281;28;20217;-64
2022/12/02 03:44:02;;;;;;;22.87;16.27;;;3.90;96.50;;;;;;5027680;28;20187;-64
2022/12/02 03:46:28;;;;;;;23.10;15.03;;;4.00;96.50;;;;;;5020440;28;20459;-64
2022/12/02 03:48:56;;;;;;;20.43;15.57;;;4.00;96.50;;;;;;5059091;28;20226;-64
2022/12/02 03:51:21;;;;;;;26.57;16.40;;;4.00;96.50;;;;;;5033054;28;20446;-64
2022/12/02 03:53:47;;;;;;;20.20;15.07;;;4.00;96.50;;;;;;5008638;28;20967;-64
2022/12/02 03:56:13;;;;;;;24.93;17.47;;;4.00;96.50;;;;;;5037402;28;20197;-64
2022/12/02 03:58:47;;;;;;;24.08;18.08;;;4.00;96.50;;;;;;5038782;28;20422;-65
2022/12/02 04:01:14;;;;;;;21.87;16.40;;;4.00;96.50;;;;;;5054509;28;20205;-65
2022/12/02 04:03:40;;;;;;;24.97;15.77;;;4.00;96.50;;;;;;5050999;28;20451;-65
2022/12/02 04:06:06;;;;;;;23.97;16.70;;;4.00;96.50;;;;;;5029477;28;20837;-64
2022/12/02 04:08:31;;;;;;;28.17;18.23;;;4.00;96.50;;;;;;5050035;28;20463;-65
2022/12/02 04:10:57;;;;;;;26.43;16.77;;;4.00;96.50;;;;;;5039335;28;20208;-65
2022/12/02 04:13:23;;;;;;;22.97;16.10;;;4.00;96.50;;;;;;5017315;28;20232;-65
2022/12/02 04:15:48;;;;;;;23.20;15.60;;;4.00;96.50;;;;;;5038133;28;20224;-64
2022/12/02 04:18:14;;;;;;;29.33;16.97;;;4.00;96.50;;;;;;5030389;28;20191;-65
2022/12/02 04:20:40;;;;;;;26.27;17.20;;;4.00;96.50;;;;;;5020189;28;20237;-64
2022/12/02 04:23:05;;;;;;;27.97;17.77;;;3.90;96.50;;;;;;5038364;28;20519;-65
2022/12/02 04:25:31;;;;;;;25.50;17.27;;;3.90;96.50;;;;;;5037519;28;20212;-64
2022/12/02 04:27:57;;;;;;;28.87;17.83;;;3.80;96.50;;;;;;5024837;28;20190;-64
2022/12/02 04:30:23;;;;;;;27.17;17.77;;;3.80;96.50;;;;;;5014543;28;20190;-64
2022/12/02 04:32:48;;;;;;;28.00;17.73;;;3.90;96.50;;;;;;5035502;28;20200;-64
2022/12/02 04:35:14;;;;;;;33.73;20.83;;;3.90;96.50;;;;;;5009970;28;20196;-64
2022/12/02 04:37:40;;;;;;;27.63;17.77;;;3.90;96.50;;;;;;5043221;28;20190;-64
2022/12/02 04:40:06;;;;;;;29.07;19.07;;;3.90;96.50;;;;;;5009450;28;20237;-64
2022/12/02 04:42:32;;;;;;;27.13;17.23;;;3.90;96.50;;;;;;5038260;28;20189;-64
2022/12/02 04:44:58;;;;;;;28.43;17.80;;;3.90;96.50;;;;;;5053610;28;20440;-64
2022/12/02 04:47:24;;;;;;;34.33;21.83;;;3.90;96.50;;;;;;5020773;28;20197;-64
2022/12/02 04:49:49;;;;;;;31.37;20.77;;;3.90;96.50;;;;;;5024275;28;20208;-64
2022/12/02 04:52:15;;;;;;;35.80;20.93;;;3.90;96.50;;;;;;5016932;28;20225;-65
2022/12/02 04:54:41;;;;;;;31.63;21.43;;;3.90;96.50;;;;;;5034669;28;20204;-64
2022/12/02 04:57:07;;;;;;;32.10;21.00;;;3.90;96.50;;;;;;5029692;28;20197;-64
2022/12/02 04:59:32;;;;;;;30.77;20.77;;;3.90;96.50;;;;;;5049485;28;20182;-64
2022/12/02 05:01:58;;;;;;;33.53;21.97;;;4.00;96.50;;;;;;5033471;28;20193;-64
2022/12/02 05:04:24;;;;;;;33.87;21.13;;;4.00;96.50;;;;;;5003887;28;20201;-65
2022/12/02 05:06:49;;;;;;;34.07;21.60;;;4.00;96.50;;;;;;5014669;28;20193;-65
2022/12/02 05:09:15;;;;;;;30.57;20.87;;;4.00;96.50;;;;;;5034438;28;20248;-65
2022/12/02 05:11:41;;;;;;;34.67;21.73;;;4.00;96.50;;;;;;5053042;28;20192;-64
2022/12/02 05:14:06;;;;;;;33.83;21.17;;;3.90;96.50;;;;;;5035737;28;20189;-64
2022/12/02 05:16:32;;;;;;;32.60;19.90;;;3.90;96.50;;;;;;5021620;28;20199;-65
2022/12/02 05:18:58;;;;;;;31.70;18.67;;;3.90;96.40;;;;;;5034283;28;20686;-64
2022/12/02 05:21:23;;;;;;;32.23;21.03;;;3.90;96.40;;;;;;5037213;28;20698;-64
2022/12/02 05:23:49;;;;;;;30.87;20.73;;;4.00;96.40;;;;;;5052640;28;20223;-64
2022/12/02 05:26:15;;;;;;;30.20;18.57;;;3.90;96.40;;;;;;5023299;28;20596;-65
2022/12/02 05:28:40;;;;;;;26.43;18.30;;;3.90;96.40;;;;;;5030811;28;20187;-65
2022/12/02 05:31:06;;;;;;;34.20;20.50;;;3.90;96.40;;;;;;5027567;28;20192;-64
2022/12/02 05:33:33;;;;;;;26.40;17.80;;;3.90;96.40;;;;;;5039069;28;20263;-64
2022/12/02 05:35:58;;;;;;;32.13;19.97;;;3.90;96.40;;;;;;5025269;28;20468;-64
2022/12/02 05:38:24;;;;;;;32.83;21.67;;;3.90;96.40;;;;;;5044796;28;20194;-64
2022/12/02 05:40:55;;;;;;;32.70;20.87;;;3.90;96.40;;;;;;5051835;28;20294;-64
2022/12/02 05:43:25;;;;;;;28.50;18.87;;;3.90;96.50;;;;;;5045265;28;20227;-64
2022/12/02 05:45:55;;;;;;;33.17;20.87;;;3.90;96.40;;;;;;5050054;28;20496;-64
2022/12/02 05:48:20;;;;;;;35.13;21.67;;;3.90;96.50;;;;;;5052157;28;20476;-64
2022/12/02 05:50:47;;;;;;;32.33;19.03;;;3.80;96.50;;;;;;5043665;28;20441;-64
2022/12/02 05:53:22;;;;;;;36.17;21.50;;;3.80;96.50;;;;;;5047063;28;20196;-64
2022/12/02 05:55:52;;;;;;;36.57;22.00;;;3.80;96.50;;;;;;5050132;28;20431;-64
2022/12/02 05:58:18;;;;;;;35.87;23.17;;;3.80;96.40;;;;;;5043722;28;20433;-64
2022/12/02 06:00:57;;;;;;;34.43;23.47;;;3.70;96.40;;;;;;5031263;28;20472;-64
2022/12/02 06:03:23;;;;;;;34.50;22.37;;;3.60;96.40;;;;;;5053296;28;20523;-64
2022/12/02 06:05:52;;;;;;;35.20;21.73;;;3.60;96.40;;;;;;5022713;28;20437;-64
2022/12/02 06:08:21;;;;;;;41.27;25.37;;;3.60;96.40;;;;;;5055481;28;20436;-65
2022/12/02 06:10:54;;;;;;;37.63;23.00;;;3.60;96.30;;;;;;5053386;28;20429;-65
2022/12/02 06:13:26;;;;;;;41.07;23.27;;;3.60;96.40;;;;;;5047229;28;20431;-65
2022/12/02 06:15:52;;;;;;;40.70;24.20;;;3.60;96.30;;;;;;5040114;28;20449;-65
2022/12/02 06:22:01;;;;;;;44.87;26.53;;;3.60;96.40;;;;;;5034688;28;20483;-65
2022/12/02 06:24:29;;;;;;;44.73;26.93;;;3.40;96.30;;;;;;5016882;28;20525;-65
2022/12/02 06:26:57;;;;;;;41.00;23.27;;;3.40;96.20;;;;;;5048953;28;20436;-65
2022/12/02 06:29:24;;;;;;;45.40;24.73;;;3.40;96.30;;;;;;5019317;28;20461;-65
2022/12/02 06:31:50;;;;;;;43.37;23.87;;;3.40;96.20;;;;;;5053437;28;20433;-65
2022/12/02 06:34:42;;;;;;;43.37;25.77;;;3.40;96.30;;;;;;5036100;28;20438;-65
2022/12/02 06:37:42;;;;;;;49.60;25.40;;;3.40;96.30;;;;;;5037078;28;20186;-65
2022/12/02 06:47:36;;;;;;;38.27;23.60;;;3.30;96.20;;;;;;4989013;28;20387;-65
2022/12/02 06:53:57;;;;;;;45.40;25.63;;;3.30;96.20;;;;;;5002276;28;20436;-65
2022/12/02 06:57:23;;;;;;;51.17;25.50;;;3.20;96.20;;;;;;5061192;28;20425;-66
2022/12/02 07:03:31;;;;;;;42.17;23.43;;;3.00;96.10;;;;;;5007447;28;20406;-66
2022/12/02 07:06:18;;;;;;;50.63;26.57;;;3.00;96.00;;;;;;4983674;28;20522;-66
2022/12/02 07:08:48;;;;;;;40.17;21.23;;;2.90;96.00;;;;;;5015394;28;20504;-66
2022/12/02 07:11:53;;;;;;;51.80;28.43;;;2.90;95.90;;;;;;5023596;28;20439;-66
2022/12/02 07:18:17;;;;;;;43.73;24.93;;;2.80;96.00;;;;;;4968273;28;20424;-66
2022/12/02 07:24:06;;;;;;;40.70;23.43;;;2.70;96.00;;;;;;4992293;28;20391;-66
2022/12/02 07:26:40;;;;;;;43.97;23.50;;;2.70;96.00;;;;;;5003448;28;20452;-66
2022/12/02 07:29:14;;;;;;;31.50;20.13;;;2.70;96.10;;;;;;5055762;28;20420;-66
2022/12/02 07:31:43;;;;;;;33.97;21.43;;;2.60;96.10;;;;;;5055144;28;20459;-66
2022/12/02 07:34:11;;;;;;;41.20;23.63;;;2.60;96.10;;;;;;5051814;28;20443;-66
2022/12/02 07:36:36;;;;;;;34.27;21.60;;;2.60;96.10;;;;;;5010823;28;20600;-65
2022/12/02 07:39:02;;;;;;;42.03;22.80;;;2.70;96.10;;;;;;5052923;28;20510;-65
2022/12/02 07:41:28;;;;;;;40.93;22.93;;;2.60;96.10;;;;;;5040545;28;20209;-66
2022/12/02 07:43:56;;;;;;;38.23;22.43;;;2.60;96.10;;;;;;5029213;28;20942;-66
2022/12/02 07:50:17;;;;;;;34.67;20.97;;;2.50;96.10;;;;;;4949704;28;20527;-66
2022/12/02 08:24:00;;;;;;;62.60;30.00;;;2.30;96.20;;;;;;4787355;29;20483;-66
2022/12/02 08:26:26;;;;;;;59.57;28.87;;;2.30;96.20;;;;;;4922418;28;20448;-64
2022/12/02 08:28:52;;;;;;;53.67;29.20;;;2.30;96.20;;;;;;5000995;28;20237;-63
2022/12/02 08:31:18;;;;;;;55.23;28.97;;;2.40;96.30;;;;;;5001518;28;20446;-64
2022/12/02 08:33:43;;;;;;;50.53;27.20;;;2.40;96.30;;;;;;4992630;28;20728;-64
2022/12/02 08:36:09;;;;;;;54.60;28.67;;;2.50;96.30;;;;;;5033171;28;20195;-65
2022/12/02 08:38:35;;;;;;;52.33;27.50;;;2.50;96.30;;;;;;4995091;28;20236;-65
2022/12/02 08:41:00;;;;;;;46.43;24.83;;;2.60;96.30;;;;;;5028799;28;20225;-64
2022/12/02 08:43:26;;;;;;;46.47;26.00;;;2.60;96.40;;;;;;5025801;28;20186;-64
2022/12/02 08:45:52;;;;;;;46.53;25.43;;;2.60;96.40;;;;;;5029836;28;20190;-65
2022/12/02 08:48:17;;;;;;;48.03;26.20;;;2.60;96.40;;;;;;5012093;28;20191;-65
2022/12/02 08:50:43;;;;;;;45.53;27.07;;;2.70;96.40;;;;;;5025294;28;20227;-64
2022/12/02 08:53:08;;;;;;;41.37;24.03;;;2.70;96.30;;;;;;4992882;28;20202;-65
2022/12/02 08:55:34;;;;;;;48.17;27.57;;;2.80;96.30;;;;;;5012724;28;20190;-65
2022/12/02 08:58:00;;;;;;;39.30;23.83;;;2.80;96.40;;;;;;5023997;28;20668;-65
2022/12/02 09:00:26;;;;;;;42.80;24.77;;;2.80;96.40;;;;;;5006473;28;20316;-65
2022/12/02 09:02:51;;;;;;;46.97;25.53;;;2.80;96.40;;;;;;5007304;28;20186;-64
2022/12/02 09:05:17;;;;;;;50.70;26.73;;;2.80;96.40;;;;;;5000206;28;20218;-65
2022/12/02 09:07:43;;;;;;;43.27;24.20;;;2.80;96.30;;;;;;5010514;28;20245;-65
2022/12/02 09:10:11;;;;;;;39.83;24.73;;;2.80;96.30;;;;;;5012058;28;20232;-65
2022/12/02 09:12:36;;;;;;;42.53;25.27;;;2.80;96.30;;;;;;5024177;28;20183;-65
2022/12/02 09:15:02;;;;;;;44.50;25.07;;;2.90;96.20;;;;;;4990184;28;20439;-65
2022/12/02 09:17:28;;;;;;;35.73;21.03;;;2.90;96.20;;;;;;5020688;28;20183;-65
2022/12/02 09:19:53;;;;;;;44.57;26.40;;;3.00;96.30;;;;;;5014832;28;20187;-65
2022/12/02 09:22:19;;;;;;;42.50;25.07;;;3.10;96.30;;;;;;5020543;28;20209;-65
2022/12/02 09:24:45;;;;;;;39.10;23.63;;;3.00;96.10;;;;;;4992556;28;20199;-65
2022/12/02 09:27:10;;;;;;;47.87;25.53;;;3.00;95.90;;;;;;5002892;28;20296;-65
2022/12/02 09:29:36;;;;;;;48.43;28.20;;;3.10;95.90;;;;;;4996106;28;20202;-65
2022/12/02 09:32:02;;;;;;;52.00;28.77;;;3.10;95.90;;;;;;5005389;28;20637;-65
2022/12/02 09:34:27;;;;;;;50.60;27.17;;;3.10;95.90;;;;;;4998330;28;20194;-65
2022/12/02 09:36:53;;;;;;;44.57;26.40;;;3.10;95.80;;;;;;5038073;28;20199;-65
2022/12/02 09:39:19;;;;;;;52.17;27.60;;;3.20;95.80;;;;;;5016373;28;20218;-65
2022/12/02 09:41:44;;;;;;;51.33;27.90;;;3.20;95.90;;;;;;5011702;28;20218;-65
2022/12/02 09:44:10;;;;;;;51.47;28.47;;;3.30;95.90;;;;;;5015347;28;20183;-66
2022/12/02 09:46:36;;;;;;;59.77;29.77;;;3.30;96.00;;;;;;5014740;28;20512;-66
2022/12/02 09:49:03;;;;;;;53.73;29.50;;;3.40;96.00;;;;;;4998384;28;20183;-66
2022/12/02 09:51:31;;;;;;;53.60;29.27;;;3.40;96.10;;;;;;5031144;28;20480;-66
2022/12/02 09:53:56;;;;;;;46.57;26.43;;;3.40;96.00;;;;;;5042387;28;20452;-66
2022/12/02 09:56:22;;;;;;;42.10;26.70;;;3.40;95.90;;;;;;5046530;28;20432;-66
2022/12/02 09:58:52;;;;;;;47.57;30.33;;;3.30;95.90;;;;;;5044505;28;20271;-66
2022/12/02 10:01:18;;;;;;;59.07;29.50;;;3.40;95.90;;;;;;5046086;28;20244;-64
2022/12/02 10:03:45;;;;;;;52.73;29.23;;;3.40;95.90;;;;;;5057389;28;20451;-64
2022/12/02 10:06:19;;;;;;;44.73;28.87;;;3.50;95.90;;;;;;5048819;28;20552;-66
2022/12/02 10:08:45;;;;;;;49.43;27.13;;;3.40;95.90;;;;;;5057006;28;20510;-65
2022/12/02 10:11:31;;;;;;;45.13;26.60;;;3.50;95.80;;;;;;5031490;28;20492;-65
2022/12/02 10:13:58;;;;;;;42.80;26.43;;;3.50;95.80;;;;;;5039921;28;20436;-65
2022/12/02 10:16:26;;;;;;;48.57;29.10;;;3.60;95.90;;;;;;5024088;28;20440;-65
2022/12/02 10:18:59;;;;;;;46.97;26.30;;;3.60;95.80;;;;;;5055949;28;20452;-65
2022/12/02 10:21:24;;;;;;;46.97;26.90;;;3.50;95.70;;;;;;5043509;28;20459;-65
2022/12/02 10:23:59;;;;;;;42.43;25.20;;;3.30;95.10;;;;;;5037292;28;20442;-65
2022/12/02 10:26:26;;;;;;;46.90;26.70;;;3.30;94.80;;;;;;5052192;28;20277;-66
2022/12/02 10:29:05;;;;;;;50.47;28.17;;;3.30;94.90;;;;;;5046300;28;20512;-65
2022/12/02 10:31:31;;;;;;;48.03;28.93;;;3.30;94.90;;;;;;5055559;28;20466;-65
2022/12/02 10:34:00;;;;;;;57.67;29.93;;;3.30;95.00;;;;;;5054257;28;20505;-65
2022/12/02 10:36:40;;;;;;;52.80;29.73;;;3.30;95.10;;;;;;5044883;28;20479;-66
2022/12/02 10:39:17;;;;;;;54.33;30.33;;;3.30;95.20;;;;;;5070845;28;20447;-66
2022/12/02 10:41:43;;;;;;;51.30;27.67;;;3.40;95.30;;;;;;5050220;28;20463;-65
2022/12/02 10:44:20;;;;;;;48.23;27.23;;;3.40;95.20;;;;;;5053638;28;20428;-65
2022/12/02 10:46:47;;;;;;;49.27;28.23;;;3.30;94.90;;;;;;5039905;28;20192;-65
2022/12/02 10:49:26;;;;;;;45.27;26.13;;;3.30;95.00;;;;;;5042275;28;20464;-65
2022/12/02 10:51:53;;;;;;;49.40;26.97;;;3.20;94.30;;;;;;5042542;28;20476;-65
2022/12/02 10:54:25;;;;;;;51.40;29.17;;;3.30;94.70;;;;;;5029610;28;20432;-65
2022/12/02 11:00:37;;;;;;;50.03;28.87;;;3.30;94.90;;;;;;5032383;28;20554;-65
2022/12/02 11:03:12;;;;;;;49.87;27.70;;;3.30;94.50;;;;;;5045524;28;20543;-65
2022/12/02 11:05:45;;;;;;;48.63;28.43;;;3.20;94.30;;;;;;5041472;28;20442;-65
2022/12/02 11:08:22;;;;;;;53.23;28.13;;;3.20;94.50;;;;;;5043922;28;20436;-66
2022/12/02 11:11:17;;;;;;;49.97;27.80;;;3.30;94.80;;;;;;5056298;28;20427;-66
2022/12/02 11:13:58;;;;;;;50.67;27.97;;;3.40;95.10;;;;;;5014515;28;20436;-65
2022/12/02 11:16:26;;;;;;;54.57;30.60;;;3.40;95.20;;;;;;5066368;28;20938;-65
2022/12/02 11:19:07;;;;;;;53.10;30.07;;;3.40;95.30;;;;;;5070102;28;20449;-63
2022/12/02 11:21:39;;;;;;;51.83;28.57;;;3.40;95.40;;;;;;5051658;28;20474;-65
2022/12/02 11:24:22;;;;;;;55.00;29.60;;;3.60;95.50;;;;;;5053372;28;20470;-65
2022/12/02 11:27:03;;;;;;;54.20;28.90;;;3.50;95.50;;;;;;5037660;28;20444;-68
2022/12/02 11:29:30;;;;;;;55.70;30.33;;;3.60;95.50;;;;;;5043928;28;20459;-65
2022/12/02 11:32:20;;;;;;;52.47;27.87;;;3.60;95.50;;;;;;5062223;28;20469;-64
2022/12/02 11:34:48;;;;;;;53.90;30.77;;;3.60;95.60;;;;;;5050730;28;20443;-67
2022/12/02 11:37:26;;;;;;;47.03;27.47;;;3.60;95.50;;;;;;5038016;28;20436;-67
2022/12/02 11:39:57;;;;;;;50.00;28.40;;;3.60;95.60;;;;;;5067448;28;20433;-67
2022/12/02 11:42:32;;;;;;;52.87;30.90;;;3.60;95.60;;;;;;5037857;28;20459;-64
2022/12/02 11:45:15;;;;;;;52.53;28.50;;;3.60;95.60;;;;;;5061961;28;20493;-64
2022/12/02 11:47:53;;;;;;;54.67;29.70;;;3.60;95.60;;;;;;5040709;28;20435;-64
2022/12/02 11:50:31;;;;;;;53.87;30.03;;;3.60;95.70;;;;;;5058939;28;20432;-64
2022/12/02 11:53:09;;;;;;;50.33;27.60;;;3.60;95.60;;;;;;5056077;28;20438;-64
2022/12/02 11:55:40;;;;;;;50.27;26.80;;;3.60;95.70;;;;;;5052838;28;20442;-63
2022/12/02 11:58:18;;;;;;;55.73;29.70;;;3.60;95.70;;;;;;5045514;28;20416;-67
2022/12/02 12:01:04;;;;;;;52.97;29.33;;;3.60;95.80;;;;;;5067025;28;20447;-67
2022/12/02 12:03:31;;;;;;;54.83;30.00;;;3.70;95.80;;;;;;5042278;28;20432;-65
2022/12/02 12:06:13;;;;;;;54.27;32.20;;;3.70;95.70;;;;;;5047138;28;20428;-65
2022/12/02 12:08:45;;;;;;;47.40;27.83;;;3.70;95.60;;;;;;5054700;28;20440;-65
2022/12/02 12:11:26;;;;;;;54.97;29.80;;;3.60;95.50;;;;;;5041124;28;20440;-66
2022/12/02 12:14:00;;;;;;;55.27;29.33;;;3.60;95.40;;;;;;5042771;28;20420;-66
2022/12/02 12:16:27;;;;;;;55.80;30.30;;;3.70;95.40;;;;;;5036848;28;20428;-66
2022/12/02 12:18:53;;;;;;;49.50;27.93;;;3.70;95.40;;;;;;5068690;28;20814;-65
2022/12/02 12:21:31;;;;;;;56.03;29.00;;;3.80;95.50;;;;;;5038026;28;21047;-64
2022/12/02 12:24:25;;;;;;;50.03;28.77;;;3.80;95.60;;;;;;5049895;28;20201;-64
2022/12/02 12:26:56;;;;;;;52.73;28.87;;;3.90;95.70;;;;;;5048938;28;20439;-64
2022/12/02 12:29:25;;;;;;;55.63;28.90;;;3.90;95.80;;;;;;5048134;28;20442;-64
2022/12/02 12:31:50;;;;;;;48.57;28.00;;;3.90;95.70;;;;;;5037757;28;20421;-65
2022/12/02 12:41:31;;;;;;;46.33;27.10;;;3.80;95.40;;;;;;5059445;28;20509;-63
2022/12/02 12:43:57;;;;;;;54.10;28.27;;;3.80;95.40;;;;;;5044141;28;20439;-63
2022/12/02 12:46:23;;;;;;;50.13;27.13;;;3.80;95.50;;;;;;5055433;28;20426;-63
2022/12/02 12:48:48;;;;;;;45.00;25.83;;;3.80;95.60;;;;;;5037113;28;20182;-64
2022/12/02 12:51:14;;;;;;;47.07;25.73;;;3.80;95.60;;;;;;5037492;28;20233;-64
2022/12/02 12:53:40;;;;;;;46.37;26.47;;;3.80;95.70;;;;;;5023660;28;20200;-63
2022/12/02 12:56:06;;;;;;;51.00;28.70;;;3.80;95.70;;;;;;5053054;28;20244;-64
2022/12/02 12:58:32;;;;;;;52.37;28.80;;;3.70;95.40;;;;;;5047401;28;20218;-64
2022/12/02 13:00:58;;;;;;;52.83;28.67;;;3.70;95.50;;;;;;5031650;28;20502;-62
2022/12/02 13:03:23;;;;;;;55.30;29.60;;;3.70;95.50;;;;;;5055876;28;20188;-62
2022/12/02 13:05:49;;;;;;;51.30;28.17;;;3.70;95.60;;;;;;5051203;28;20201;-64
2022/12/02 13:08:15;;;;;;;47.40;28.27;;;3.70;95.60;;;;;;5061632;28;20285;-63
2022/12/02 13:10:41;;;;;;;53.37;27.47;;;3.60;95.50;;;;;;5028105;28;20665;-64
2022/12/02 13:13:07;;;;;;;47.90;26.00;;;3.60;95.50;;;;;;5038869;28;20227;-63
2022/12/02 13:15:33;;;;;;;47.77;28.07;;;3.70;95.60;;;;;;5046703;28;20258;-64
2022/12/02 13:17:58;;;;;;;49.40;28.13;;;3.70;95.60;;;;;;5039001;28;20455;-63
2022/12/02 13:20:25;;;;;;;55.67;29.97;;;3.70;95.60;;;;;;5037279;28;20514;-63
2022/12/02 13:22:50;;;;;;;47.70;28.67;;;3.60;95.70;;;;;;5054349;28;20189;-63
2022/12/02 13:25:17;;;;;;;53.50;29.57;;;3.70;95.70;;;;;;5016974;28;20532;-65
2022/12/02 13:27:43;;;;;;;49.20;26.90;;;3.70;95.80;;;;;;5050189;28;20182;-63
2022/12/02 13:30:14;;;;;;;51.37;28.50;;;3.70;95.80;;;;;;5039981;28;20440;-65
2022/12/02 13:32:40;;;;;;;52.37;28.33;;;3.70;95.80;;;;;;5039120;28;20238;-64
2022/12/02 13:35:06;;;;;;;52.13;29.87;;;3.70;95.90;;;;;;5063648;28;20433;-64
2022/12/02 13:37:32;;;;;;;48.70;28.93;;;3.70;95.90;;;;;;5050392;28;20466;-63
2022/12/02 13:39:58;;;;;;;54.97;29.07;;;3.70;95.90;;;;;;5059285;28;20513;-63
2022/12/02 13:42:24;;;;;;;42.40;24.93;;;3.80;95.90;;;;;;5036282;28;20186;-63
2022/12/02 13:44:49;;;;;;;50.53;28.23;;;3.80;95.90;;;;;;5032867;28;20205;-63
2022/12/02 13:47:52;;;;;;;48.53;27.27;;;3.70;95.90;;;;;;5032978;28;20202;-63
2022/12/02 13:50:18;;;;;;;51.10;27.50;;;3.60;95.70;;;;;;5059172;28;20267;-63
2022/12/02 13:52:44;;;;;;;48.33;29.43;;;3.60;95.70;;;;;;5053334;28;20559;-63
2022/12/02 13:55:09;;;;;;;46.93;27.93;;;3.60;95.70;;;;;;5020227;28;20233;-63
2022/12/02 13:57:35;;;;;;;46.73;28.20;;;3.60;95.80;;;;;;5052016;28;20224;-63
2022/12/02 14:00:01;;;;;;;48.63;27.43;;;3.60;95.80;;;;;;5011365;28;20600;-64